Time;durP1;ratioP1;P1;durP2;ratioP2;P2;SDS_P1;SDS_P2;PMS_P1;PMS_P2;Temp;Humidity;BMP_temperature;BMP_pressure;BME280_temperature;BME280_humidity;BME280_pressure;Samples;Min_cycle;Max_cycle;Signal;HPM_P1;HPM_P2
2023/05/14 00:00:22;;;;;;;0.08;0.08;;;;;;;;;;5036650;28;20221;-80
2023/05/14 00:02:49;;;;;;;0.00;0.00;;;;;;;;;;5059368;28;20236;-80
2023/05/14 00:05:15;;;;;;;0.10;0.10;;;;;;;;;;5036443;28;20614;-80
2023/05/14 00:07:41;;;;;;;0.10;0.10;;;;;;;;;;5060106;28;20442;-80
2023/05/14 00:10:08;;;;;;;0.10;0.10;;;;;;;;;;5040980;28;20388;-80
2023/05/14 00:12:34;;;;;;;0.10;0.10;;;;;;;;;;5060535;28;20223;-81
2023/05/14 00:15:01;;;;;;;0.00;0.00;;;;;;;;;;5045240;28;20236;-80
2023/05/14 00:17:29;;;;;;;0.10;0.10;;;;;;;;;;5050616;28;20252;-80
2023/05/14 00:19:55;;;;;;;0.10;0.10;;;;;;;;;;5044971;28;20236;-80
2023/05/14 00:22:21;;;;;;;0.10;0.10;;;;;;;;;;5050446;28;20499;-80
2023/05/14 00:24:48;;;;;;;0.10;0.10;;;;;;;;;;5045217;28;20220;-81
2023/05/14 00:27:14;;;;;;;0.10;0.10;;;;;;;;;;5050332;28;20235;-81
2023/05/14 00:29:41;;;;;;;0.08;0.08;;;;;;;;;;5045262;28;20230;-82
2023/05/14 00:32:07;;;;;;;0.10;0.10;;;;;;;;;;5050150;28;20294;-82
2023/05/14 00:34:35;;;;;;;0.10;0.10;;;;;;;;;;5045316;28;20208;-82
2023/05/14 00:37:02;;;;;;;0.07;0.07;;;;;;;;;;5049402;28;20327;-82
2023/05/14 00:39:28;;;;;;;1.88;1.02;;;;;;;;;;5045186;28;20232;-82
2023/05/14 00:41:55;;;;;;;0.00;0.00;;;;;;;;;;5048244;28;20239;-81
2023/05/14 00:44:21;;;;;;;0.00;0.00;;;;;;;;;;5046681;28;20244;-81
2023/05/14 00:46:47;;;;;;;0.00;0.00;;;;;;;;;;5047252;28;20274;-82
2023/05/14 00:49:14;;;;;;;0.00;0.00;;;;;;;;;;5047112;28;20287;-82
2023/05/14 00:51:45;;;;;;;0.10;0.10;;;;;;;;;;5046232;28;20306;-82
2023/05/14 00:54:12;;;;;;;0.10;0.10;;;;;;;;;;5047948;28;20216;-82
2023/05/14 00:56:38;;;;;;;0.10;0.10;;;;;;;;;;5045770;28;20480;-82
2023/05/14 00:59:04;;;;;;;0.10;0.10;;;;;;;;;;5048544;28;20231;-81
2023/05/14 01:01:31;;;;;;;0.10;0.10;;;;;;;;;;5044833;28;20464;-82
2023/05/14 01:03:57;;;;;;;0.10;0.10;;;;;;;;;;5049003;28;20237;-81
2023/05/14 01:06:26;;;;;;;0.00;0.00;;;;;;;;;;5044061;28;20247;-82
2023/05/14 01:08:58;;;;;;;0.10;0.10;;;;;;;;;;5049842;28;20236;-82
2023/05/14 01:11:29;;;;;;;0.10;0.10;;;;;;;;;;5043861;28;20284;-82
2023/05/14 01:13:58;;;;;;;0.10;0.10;;;;;;;;;;5049560;28;20400;-82
2023/05/14 01:16:26;;;;;;;0.10;0.10;;;;;;;;;;5044080;28;20465;-82
2023/05/14 01:18:54;;;;;;;0.10;0.10;;;;;;;;;;5049302;28;20272;-82
2023/05/14 01:21:32;;;;;;;0.10;0.10;;;;;;;;;;5043180;28;20491;-82
2023/05/14 01:23:59;;;;;;;0.10;0.10;;;;;;;;;;5048871;28;20239;-82
2023/05/14 01:26:25;;;;;;;0.03;0.03;;;;;;;;;;5043684;28;20245;-82
2023/05/14 01:28:52;;;;;;;0.10;0.10;;;;;;;;;;5049759;28;20277;-82
2023/05/14 01:31:23;;;;;;;0.10;0.10;;;;;;;;;;5042967;28;20256;-82
2023/05/14 01:33:50;;;;;;;0.10;0.10;;;;;;;;;;5049946;28;20212;-82
2023/05/14 01:36:16;;;;;;;0.10;0.10;;;;;;;;;;5042215;28;20240;-82
2023/05/14 01:38:46;;;;;;;0.10;0.10;;;;;;;;;;5050499;28;20208;-82
2023/05/14 01:41:12;;;;;;;0.20;0.20;;;;;;;;;;5041764;28;20247;-82
2023/05/14 01:43:39;;;;;;;0.03;0.03;;;;;;;;;;5051147;28;20271;-82
2023/05/14 01:46:05;;;;;;;0.10;0.10;;;;;;;;;;5040879;28;20240;-82
2023/05/14 01:48:32;;;;;;;0.10;0.10;;;;;;;;;;5051606;28;20235;-82
2023/05/14 01:50:58;;;;;;;0.05;0.05;;;;;;;;;;5039989;28;20248;-82
2023/05/14 01:53:25;;;;;;;0.10;0.10;;;;;;;;;;5052699;28;20278;-82
2023/05/14 01:55:52;;;;;;;0.10;0.10;;;;;;;;;;5039097;28;20416;-82
2023/05/14 01:58:19;;;;;;;0.10;0.10;;;;;;;;;;5053501;28;20596;-82
2023/05/14 02:00:45;;;;;;;0.10;0.10;;;;;;;;;;5038021;28;20339;-82
2023/05/14 02:03:12;;;;;;;0.10;0.10;;;;;;;;;;5054199;28;20208;-82
2023/05/14 02:05:38;;;;;;;0.10;0.10;;;;;;;;;;5037257;28;20259;-82
2023/05/14 02:08:05;;;;;;;0.10;0.10;;;;;;;;;;5054975;28;20272;-82
2023/05/14 02:10:31;;;;;;;0.15;0.15;;;;;;;;;;5036499;28;20243;-82
2023/05/14 02:12:59;;;;;;;0.00;0.00;;;;;;;;;;5056023;28;20246;-82
2023/05/14 02:15:26;;;;;;;0.10;0.10;;;;;;;;;;5035849;28;20212;-82
2023/05/14 02:17:52;;;;;;;0.55;0.55;;;;;;;;;;5056604;28;20548;-82
2023/05/14 02:20:18;;;;;;;0.10;0.10;;;;;;;;;;5034717;28;20235;-82
2023/05/14 02:22:45;;;;;;;0.10;0.10;;;;;;;;;;5057494;28;20247;-82
2023/05/14 02:25:11;;;;;;;0.00;0.00;;;;;;;;;;5033969;28;20424;-82
2023/05/14 02:27:38;;;;;;;2.22;2.17;;;;;;;;;;5058002;28;20279;-82
2023/05/14 02:30:06;;;;;;;0.10;0.10;;;;;;;;;;5043405;28;20202;-82
2023/05/14 02:32:33;;;;;;;0.10;0.10;;;;;;;;;;5031833;28;20214;-82
2023/05/14 02:34:59;;;;;;;0.10;0.10;;;;;;;;;;5043474;28;20448;-81
2023/05/14 02:37:25;;;;;;;0.10;0.10;;;;;;;;;;5048447;28;20251;-81
2023/05/14 02:39:52;;;;;;;0.10;0.10;;;;;;;;;;5043131;28;20393;-81
2023/05/14 02:42:18;;;;;;;0.10;0.10;;;;;;;;;;5048545;28;20260;-81
2023/05/14 02:44:45;;;;;;;0.10;0.10;;;;;;;;;;5043354;28;20214;-82
2023/05/14 02:47:12;;;;;;;0.10;0.10;;;;;;;;;;5048313;28;20243;-81
2023/05/14 02:49:39;;;;;;;0.10;0.10;;;;;;;;;;5045260;28;20284;-82
2023/05/14 02:52:05;;;;;;;0.10;0.10;;;;;;;;;;5051854;28;20302;-81
2023/05/14 02:54:32;;;;;;;0.10;0.10;;;;;;;;;;5047301;28;20280;-82
2023/05/14 02:56:58;;;;;;;0.10;0.10;;;;;;;;;;5050974;28;20323;-82
2023/05/14 02:59:25;;;;;;;0.57;0.57;;;;;;;;;;5048143;28;20296;-82
2023/05/14 03:01:51;;;;;;;0.10;0.10;;;;;;;;;;5050058;28;20243;-74
2023/05/14 03:04:19;;;;;;;0.05;0.05;;;;;;;;;;5048986;28;20213;-74
2023/05/14 03:06:45;;;;;;;0.10;0.10;;;;;;;;;;5048920;28;20242;-73
2023/05/14 03:09:11;;;;;;;0.10;0.10;;;;;;;;;;5049692;28;20207;-74
2023/05/14 03:11:38;;;;;;;0.10;0.10;;;;;;;;;;5047840;28;20265;-74
2023/05/14 03:14:04;;;;;;;0.10;0.10;;;;;;;;;;5050559;28;20239;-74
2023/05/14 03:16:31;;;;;;;0.00;0.00;;;;;;;;;;5046931;28;20242;-74
2023/05/14 03:18:57;;;;;;;0.10;0.10;;;;;;;;;;5051233;28;20212;-74
2023/05/14 03:21:26;;;;;;;0.10;0.10;;;;;;;;;;5045766;28;20317;-74
2023/05/14 03:23:52;;;;;;;0.10;0.10;;;;;;;;;;5051987;28;20283;-74
2023/05/14 03:26:20;;;;;;;0.10;0.10;;;;;;;;;;5045367;28;20247;-74
2023/05/14 03:28:46;;;;;;;0.10;0.10;;;;;;;;;;5052336;28;20235;-74
2023/05/14 03:31:13;;;;;;;0.10;0.10;;;;;;;;;;5044333;28;20310;-74
2023/05/14 03:33:39;;;;;;;0.10;0.10;;;;;;;;;;5053251;28;20270;-74
2023/05/14 03:36:06;;;;;;;0.10;0.10;;;;;;;;;;5043644;28;20580;-74
2023/05/14 03:38:33;;;;;;;0.10;0.10;;;;;;;;;;5054164;28;20469;-74
2023/05/14 03:41:00;;;;;;;0.10;0.10;;;;;;;;;;5042477;28;20253;-74
2023/05/14 03:43:26;;;;;;;0.10;0.10;;;;;;;;;;5054861;28;20242;-74
2023/05/14 03:45:52;;;;;;;0.10;0.10;;;;;;;;;;5041558;28;20322;-74
2023/05/14 03:48:19;;;;;;;0.03;0.03;;;;;;;;;;5055515;28;20239;-74
2023/05/14 03:50:45;;;;;;;0.10;0.10;;;;;;;;;;5040448;28;20268;-74
2023/05/14 03:53:12;;;;;;;0.10;0.10;;;;;;;;;;5056341;28;20445;-74
2023/05/14 03:55:39;;;;;;;0.10;0.10;;;;;;;;;;5039074;28;20259;-74
2023/05/14 03:58:12;;;;;;;0.10;0.10;;;;;;;;;;5057288;28;20230;-74
2023/05/14 04:00:38;;;;;;;0.10;0.10;;;;;;;;;;5037411;28;20374;-74
2023/05/14 04:03:05;;;;;;;0.10;0.10;;;;;;;;;;5058184;28;20470;-74
2023/05/14 04:05:31;;;;;;;0.00;0.00;;;;;;;;;;5038207;28;20434;-74
2023/05/14 04:07:57;;;;;;;0.57;0.57;;;;;;;;;;5058306;28;20437;-74
2023/05/14 04:10:24;;;;;;;0.87;0.87;;;;;;;;;;5037471;28;20209;-74
2023/05/14 04:12:52;;;;;;;0.10;0.10;;;;;;;;;;5058468;28;20206;-74
2023/05/14 04:15:18;;;;;;;0.00;0.00;;;;;;;;;;5036349;28;20211;-74
2023/05/14 04:17:44;;;;;;;0.03;0.03;;;;;;;;;;5059282;28;20217;-74
2023/05/14 04:20:11;;;;;;;0.10;0.10;;;;;;;;;;5035262;28;20239;-74
2023/05/14 04:22:37;;;;;;;0.10;0.10;;;;;;;;;;5060041;28;20270;-74
2023/05/14 04:25:04;;;;;;;0.10;0.10;;;;;;;;;;5045280;28;20453;-74
2023/05/14 04:27:31;;;;;;;0.10;0.10;;;;;;;;;;5050198;28;20259;-73
2023/05/14 04:29:58;;;;;;;0.23;0.23;;;;;;;;;;5045282;28;20462;-74
2023/05/14 04:32:25;;;;;;;0.10;0.10;;;;;;;;;;5050212;28;20239;-74
2023/05/14 04:34:52;;;;;;;0.10;0.10;;;;;;;;;;5044834;28;20208;-74
2023/05/14 04:37:18;;;;;;;0.10;0.10;;;;;;;;;;5050086;28;20262;-74
2023/05/14 04:39:44;;;;;;;0.10;0.10;;;;;;;;;;5045065;28;20239;-74
2023/05/14 04:42:11;;;;;;;0.10;0.10;;;;;;;;;;5049816;28;20237;-74
2023/05/14 04:44:37;;;;;;;0.07;0.07;;;;;;;;;;5044973;28;20204;-73
2023/05/14 04:47:05;;;;;;;0.00;0.00;;;;;;;;;;5049468;28;20289;-74
2023/05/14 04:49:32;;;;;;;0.10;0.10;;;;;;;;;;5044946;28;20244;-74
2023/05/14 04:51:58;;;;;;;0.20;0.20;;;;;;;;;;5048534;28;20235;-74
2023/05/14 04:54:25;;;;;;;0.10;0.10;;;;;;;;;;5045526;28;20405;-74
2023/05/14 04:56:51;;;;;;;0.00;0.00;;;;;;;;;;5047521;28;20256;-73
2023/05/14 04:59:17;;;;;;;0.00;0.00;;;;;;;;;;5046882;28;20256;-73
2023/05/14 05:01:44;;;;;;;0.10;0.10;;;;;;;;;;5046511;28;20432;-74
2023/05/14 05:04:12;;;;;;;0.10;0.10;;;;;;;;;;5047786;28;20246;-73
2023/05/14 05:06:38;;;;;;;0.10;0.10;;;;;;;;;;5045978;28;20267;-74
2023/05/14 05:09:04;;;;;;;0.10;0.10;;;;;;;;;;5048391;28;20449;-74
2023/05/14 05:11:31;;;;;;;0.10;0.10;;;;;;;;;;5043983;28;20244;-73
2023/05/14 05:13:57;;;;;;;0.10;0.10;;;;;;;;;;5049269;28;20214;-74
2023/05/14 05:16:23;;;;;;;0.23;0.23;;;;;;;;;;5043748;28;20262;-74
2023/05/14 05:18:50;;;;;;;0.10;0.10;;;;;;;;;;5049974;28;20236;-74
2023/05/14 05:21:17;;;;;;;0.10;0.10;;;;;;;;;;5042542;28;20510;-74
2023/05/14 05:23:44;;;;;;;0.15;0.15;;;;;;;;;;5050801;28;20287;-74
2023/05/14 05:26:10;;;;;;;0.10;0.10;;;;;;;;;;5041933;28;20255;-74
2023/05/14 05:28:36;;;;;;;0.00;0.00;;;;;;;;;;5051532;28;20279;-74
2023/05/14 05:31:03;;;;;;;0.10;0.10;;;;;;;;;;5040932;28;20311;-74
2023/05/14 05:33:29;;;;;;;0.10;0.10;;;;;;;;;;5052213;28;20208;-74
2023/05/14 05:35:56;;;;;;;0.10;0.10;;;;;;;;;;5039972;28;20257;-74
2023/05/14 05:38:23;;;;;;;1.60;1.60;;;;;;;;;;5053322;28;20442;-74
2023/05/14 05:40:50;;;;;;;0.10;0.10;;;;;;;;;;5039013;28;20254;-74
2023/05/14 05:43:16;;;;;;;0.10;0.10;;;;;;;;;;5053832;28;20243;-74
2023/05/14 05:45:44;;;;;;;0.10;0.10;;;;;;;;;;5037959;28;20246;-73
2023/05/14 05:48:11;;;;;;;0.10;0.10;;;;;;;;;;5054499;28;20212;-74
2023/05/14 05:50:37;;;;;;;0.10;0.10;;;;;;;;;;5037082;28;20258;-73
2023/05/14 05:53:03;;;;;;;0.10;0.10;;;;;;;;;;5055299;28;20264;-74
2023/05/14 05:55:31;;;;;;;0.00;0.00;;;;;;;;;;5036033;28;20251;-74
2023/05/14 05:57:57;;;;;;;0.10;0.10;;;;;;;;;;5056357;28;20261;-74
2023/05/14 06:00:24;;;;;;;0.00;0.00;;;;;;;;;;5035180;28;20204;-74
2023/05/14 06:02:50;;;;;;;0.10;0.10;;;;;;;;;;5056981;28;20225;-74
2023/05/14 06:05:18;;;;;;;0.10;0.10;;;;;;;;;;5034597;28;20505;-74
2023/05/14 06:07:44;;;;;;;0.00;0.00;;;;;;;;;;5057695;28;20445;-74
2023/05/14 06:10:11;;;;;;;0.10;0.10;;;;;;;;;;5033797;28;20208;-74
2023/05/14 06:12:39;;;;;;;0.87;0.87;;;;;;;;;;5058540;28;20541;-74
2023/05/14 06:15:06;;;;;;;0.07;0.07;;;;;;;;;;5043372;28;20201;-74
2023/05/14 06:17:32;;;;;;;0.00;0.00;;;;;;;;;;5048434;28;20247;-74
2023/05/14 06:19:58;;;;;;;0.10;0.10;;;;;;;;;;5043289;28;20239;-73
2023/05/14 06:22:25;;;;;;;0.10;0.10;;;;;;;;;;5049038;28;20251;-74
2023/05/14 06:24:51;;;;;;;0.10;0.10;;;;;;;;;;5047546;28;20402;-74
2023/05/14 06:27:17;;;;;;;0.10;0.10;;;;;;;;;;5052537;28;20299;-74
2023/05/14 06:29:45;;;;;;;0.10;0.10;;;;;;;;;;5047504;28;20271;-74
2023/05/14 06:32:14;;;;;;;0.10;0.10;;;;;;;;;;5052468;28;20305;-73
2023/05/14 06:34:40;;;;;;;0.10;0.10;;;;;;;;;;5047382;28;20521;-74
2023/05/14 06:37:07;;;;;;;0.30;0.30;;;;;;;;;;5052275;28;20240;-74
2023/05/14 06:39:33;;;;;;;0.10;0.10;;;;;;;;;;5047463;28;20208;-74
2023/05/14 06:41:59;;;;;;;0.10;0.10;;;;;;;;;;5051016;28;20295;-73
2023/05/14 06:44:26;;;;;;;0.00;0.00;;;;;;;;;;5048526;28;20278;-74
2023/05/14 06:46:54;;;;;;;0.10;0.10;;;;;;;;;;5050018;28;20239;-74
2023/05/14 06:49:20;;;;;;;0.50;0.50;;;;;;;;;;5048804;28;20216;-74
2023/05/14 06:51:47;;;;;;;0.10;0.10;;;;;;;;;;5049336;28;20258;-74
2023/05/14 06:54:13;;;;;;;0.10;0.10;;;;;;;;;;5049841;28;20510;-74
2023/05/14 06:56:39;;;;;;;0.10;0.10;;;;;;;;;;5048446;28;20498;-74
2023/05/14 06:59:06;;;;;;;0.10;0.10;;;;;;;;;;5050531;28;20259;-74
2023/05/14 07:01:32;;;;;;;0.10;0.10;;;;;;;;;;5047272;28;20310;-74
2023/05/14 07:04:00;;;;;;;0.10;0.10;;;;;;;;;;5051541;28;20265;-74
2023/05/14 07:06:26;;;;;;;0.00;0.00;;;;;;;;;;5046759;28;20495;-74
2023/05/14 07:08:53;;;;;;;0.10;0.10;;;;;;;;;;5052066;28;20204;-74
2023/05/14 07:11:19;;;;;;;0.10;0.10;;;;;;;;;;5045580;28;20246;-74
2023/05/14 07:13:45;;;;;;;0.00;0.00;;;;;;;;;;5053049;28;20239;-74
2023/05/14 07:16:12;;;;;;;0.38;0.38;;;;;;;;;;5044561;28;20303;-74
2023/05/14 07:18:39;;;;;;;0.10;0.10;;;;;;;;;;5053661;28;20277;-74
2023/05/14 07:21:06;;;;;;;0.00;0.00;;;;;;;;;;5043668;28;20239;-74
2023/05/14 07:23:35;;;;;;;0.38;0.38;;;;;;;;;;5054373;28;20234;-73
2023/05/14 07:26:01;;;;;;;0.03;0.03;;;;;;;;;;5042721;28;20483;-74
2023/05/14 07:28:27;;;;;;;0.10;0.10;;;;;;;;;;5054906;28;20272;-74
2023/05/14 07:30:54;;;;;;;0.10;0.10;;;;;;;;;;5041944;28;20315;-74
2023/05/14 07:33:20;;;;;;;0.10;0.10;;;;;;;;;;5055788;28;20444;-74
2023/05/14 07:35:47;;;;;;;0.10;0.10;;;;;;;;;;5040001;28;20308;-74
2023/05/14 07:38:14;;;;;;;0.08;0.08;;;;;;;;;;5056294;28;20276;-74
2023/05/14 07:40:41;;;;;;;0.10;0.10;;;;;;;;;;5040259;28;20242;-74
2023/05/14 07:43:07;;;;;;;0.00;0.00;;;;;;;;;;5057287;28;20269;-74
2023/05/14 07:45:33;;;;;;;0.00;0.00;;;;;;;;;;5039167;28;20248;-74
2023/05/14 07:48:00;;;;;;;0.10;0.10;;;;;;;;;;5058003;28;20537;-74
2023/05/14 07:50:26;;;;;;;0.00;0.00;;;;;;;;;;5037938;28;20279;-74
2023/05/14 07:52:52;;;;;;;0.10;0.10;;;;;;;;;;5058919;28;20241;-74
2023/05/14 07:55:20;;;;;;;0.00;0.00;;;;;;;;;;5037031;28;20234;-75
2023/05/14 07:57:47;;;;;;;0.10;0.10;;;;;;;;;;5059384;28;20241;-74
2023/05/14 08:00:14;;;;;;;0.10;0.10;;;;;;;;;;5035986;28;20205;-74
2023/05/14 08:02:41;;;;;;;0.00;0.00;;;;;;;;;;5060189;28;20299;-74
2023/05/14 08:05:08;;;;;;;0.03;0.03;;;;;;;;;;5045696;28;20435;-74
2023/05/14 08:07:34;;;;;;;0.10;0.10;;;;;;;;;;5034105;28;20227;-74
2023/05/14 08:10:00;;;;;;;0.10;0.10;;;;;;;;;;5045592;28;20206;-74
2023/05/14 08:12:28;;;;;;;0.00;0.00;;;;;;;;;;5050776;28;20253;-74
2023/05/14 08:14:55;;;;;;;0.10;0.10;;;;;;;;;;5045552;28;20213;-74
2023/05/14 08:17:21;;;;;;;0.10;0.10;;;;;;;;;;5050669;28;20514;-74
2023/05/14 08:19:48;;;;;;;0.10;0.10;;;;;;;;;;5045069;28;20211;-74
2023/05/14 08:22:14;;;;;;;0.50;0.50;;;;;;;;;;5050321;28;20483;-74
2023/05/14 08:24:41;;;;;;;0.30;0.30;;;;;;;;;;5045374;28;20214;-74
2023/05/14 08:27:08;;;;;;;0.00;0.00;;;;;;;;;;5050374;28;20242;-74
2023/05/14 08:29:36;;;;;;;0.10;0.10;;;;;;;;;;5045433;28;20284;-74
2023/05/14 08:32:02;;;;;;;0.00;0.00;;;;;;;;;;5049528;28;20312;-75
2023/05/14 08:34:29;;;;;;;0.00;0.00;;;;;;;;;;5045965;28;20208;-73
2023/05/14 08:36:55;;;;;;;0.10;0.10;;;;;;;;;;5048645;28;20241;-76
2023/05/14 08:39:21;;;;;;;0.05;0.05;;;;;;;;;;5046834;28;20206;-75
2023/05/14 08:41:48;;;;;;;0.10;0.10;;;;;;;;;;5047485;28;20459;-75
2023/05/14 08:44:17;;;;;;;0.00;0.00;;;;;;;;;;5047706;28;20207;-74
2023/05/14 08:46:45;;;;;;;0.10;0.10;;;;;;;;;;5046907;28;20266;-75
2023/05/14 08:49:16;;;;;;;0.00;0.00;;;;;;;;;;5047661;28;20283;-75
2023/05/14 08:51:43;;;;;;;0.10;0.10;;;;;;;;;;5046751;28;20288;-75
2023/05/14 08:54:10;;;;;;;0.20;0.20;;;;;;;;;;5048027;28;20210;-75
2023/05/14 08:56:38;;;;;;;0.00;0.00;;;;;;;;;;5045858;28;20245;-75
2023/05/14 08:59:05;;;;;;;0.00;0.00;;;;;;;;;;5048539;28;20260;-74
2023/05/14 09:01:31;;;;;;;0.00;0.00;;;;;;;;;;5044999;28;20325;-75
2023/05/14 09:04:00;;;;;;;0.00;0.00;;;;;;;;;;5049227;28;20231;-75
2023/05/14 09:06:27;;;;;;;0.10;0.10;;;;;;;;;;5044446;28;20305;-75
2023/05/14 09:08:54;;;;;;;0.05;0.05;;;;;;;;;;5049715;28;20246;-78
2023/05/14 09:11:29;;;;;;;0.10;0.10;;;;;;;;;;5043661;28;20247;-78
2023/05/14 09:13:55;;;;;;;0.10;0.10;;;;;;;;;;5049571;28;20204;-77
2023/05/14 09:16:22;;;;;;;0.00;0.00;;;;;;;;;;5043465;28;20251;-78
2023/05/14 09:18:49;;;;;;;0.00;0.00;;;;;;;;;;5050233;28;20236;-78
2023/05/14 09:21:17;;;;;;;0.20;0.20;;;;;;;;;;5042562;28;20250;-78
2023/05/14 09:23:44;;;;;;;0.10;0.10;;;;;;;;;;5050681;28;20232;-78
2023/05/14 09:26:11;;;;;;;0.00;0.00;;;;;;;;;;5042145;28;20267;-77
2023/05/14 09:28:40;;;;;;;0.10;0.10;;;;;;;;;;5051383;28;20251;-78
2023/05/14 09:31:06;;;;;;;0.00;0.00;;;;;;;;;;5041359;28;20243;-78
2023/05/14 09:33:33;;;;;;;0.10;0.10;;;;;;;;;;5052016;28;20203;-77
2023/05/14 09:35:59;;;;;;;0.10;0.10;;;;;;;;;;5040303;28;20260;-78
2023/05/14 09:38:29;;;;;;;0.00;0.00;;;;;;;;;;5052793;28;20457;-78
2023/05/14 09:40:56;;;;;;;0.10;0.10;;;;;;;;;;5039754;28;20304;-78
2023/05/14 09:43:22;;;;;;;0.10;0.10;;;;;;;;;;5052800;28;20230;-78
2023/05/14 09:45:49;;;;;;;0.05;0.05;;;;;;;;;;5038960;28;20581;-78
2023/05/14 09:48:16;;;;;;;0.00;0.00;;;;;;;;;;5053822;28;20278;-78
2023/05/14 09:50:42;;;;;;;0.10;0.10;;;;;;;;;;5038161;28;20516;-78
2023/05/14 09:53:09;;;;;;;0.00;0.00;;;;;;;;;;5054540;28;20274;-77
2023/05/14 09:55:37;;;;;;;0.25;0.25;;;;;;;;;;5037198;28;20328;-77
2023/05/14 09:58:04;;;;;;;0.00;0.00;;;;;;;;;;5054847;28;20258;-77
2023/05/14 10:00:31;;;;;;;0.00;0.00;;;;;;;;;;5036231;28;20249;-77
2023/05/14 10:02:58;;;;;;;0.05;0.05;;;;;;;;;;5055789;28;20253;-77
2023/05/14 10:05:25;;;;;;;0.00;0.00;;;;;;;;;;5035675;28;20559;-77
2023/05/14 10:07:53;;;;;;;0.00;0.00;;;;;;;;;;5056592;28;20204;-77
2023/05/14 10:10:20;;;;;;;0.10;0.10;;;;;;;;;;5034695;28;20282;-77
2023/05/14 10:12:50;;;;;;;0.00;0.00;;;;;;;;;;5057326;28;20338;-76
2023/05/14 10:15:19;;;;;;;0.00;0.00;;;;;;;;;;5034778;28;20234;-74
2023/05/14 10:17:49;;;;;;;0.00;0.00;;;;;;;;;;5057493;28;20427;-73
2023/05/14 10:20:16;;;;;;;0.00;0.00;;;;;;;;;;5034170;28;20233;-75
2023/05/14 10:22:43;;;;;;;0.00;0.00;;;;;;;;;;5057857;28;20395;-79
2023/05/14 10:25:10;;;;;;;0.00;0.00;;;;;;;;;;5033642;28;20211;-74
2023/05/14 10:27:36;;;;;;;0.00;0.00;;;;;;;;;;5058431;28;20216;-76
2023/05/14 10:30:05;;;;;;;0.30;0.30;;;;;;;;;;5043369;28;20266;-77
2023/05/14 10:32:32;;;;;;;0.00;0.00;;;;;;;;;;5048529;28;20302;-76
2023/05/14 10:35:01;;;;;;;1.55;1.45;;;;;;;;;;5043562;28;20238;-74
2023/05/14 10:37:28;;;;;;;0.10;0.10;;;;;;;;;;5048566;28;20255;-74
2023/05/14 10:39:57;;;;;;;0.00;0.00;;;;;;;;;;5043605;28;20212;-74
2023/05/14 10:42:25;;;;;;;0.10;0.10;;;;;;;;;;5048478;28;20247;-75
2023/05/14 10:44:54;;;;;;;0.10;0.10;;;;;;;;;;5043190;28;20236;-75
2023/05/14 10:47:22;;;;;;;0.10;0.10;;;;;;;;;;5048570;28;20470;-75
2023/05/14 10:49:51;;;;;;;0.00;0.00;;;;;;;;;;5043169;28;20328;-75
2023/05/14 10:52:19;;;;;;;0.00;0.00;;;;;;;;;;5048482;28;20269;-75
2023/05/14 10:54:49;;;;;;;0.00;0.00;;;;;;;;;;5043433;28;20207;-75
2023/05/14 10:57:17;;;;;;;0.03;0.03;;;;;;;;;;5048243;28;20247;-75
2023/05/14 10:59:43;;;;;;;0.00;0.00;;;;;;;;;;5043310;28;20283;-74
2023/05/14 11:02:21;;;;;;;0.00;0.00;;;;;;;;;;5048236;28;20250;-75
2023/05/14 11:04:58;;;;;;;0.00;0.00;;;;;;;;;;5043228;28;20559;-74
2023/05/14 11:07:27;;;;;;;0.05;0.05;;;;;;;;;;5048228;28;20318;-74
2023/05/14 11:09:54;;;;;;;0.00;0.00;;;;;;;;;;5044028;28;20275;-77
2023/05/14 11:12:21;;;;;;;0.10;0.10;;;;;;;;;;5051867;28;20314;-75
2023/05/14 11:14:47;;;;;;;0.00;0.00;;;;;;;;;;5046474;28;20234;-75
2023/05/14 11:17:14;;;;;;;0.10;0.10;;;;;;;;;;5051674;28;20310;-76
2023/05/14 11:19:43;;;;;;;0.05;0.05;;;;;;;;;;5046342;28;20212;-76
2023/05/14 11:22:12;;;;;;;0.08;0.08;;;;;;;;;;5051817;28;20244;-76
2023/05/14 11:24:39;;;;;;;0.00;0.00;;;;;;;;;;5046220;28;20301;-77
2023/05/14 11:27:07;;;;;;;0.03;0.03;;;;;;;;;;5051275;28;20315;-75
2023/05/14 11:29:33;;;;;;;0.08;0.08;;;;;;;;;;5046667;28;20317;-77
2023/05/14 11:32:00;;;;;;;0.00;0.00;;;;;;;;;;5050366;28;20322;-77
2023/05/14 11:34:26;;;;;;;0.10;0.10;;;;;;;;;;5047594;28;20225;-76
2023/05/14 11:36:53;;;;;;;0.00;0.00;;;;;;;;;;5049338;28;20249;-76
2023/05/14 11:39:20;;;;;;;0.10;0.10;;;;;;;;;;5048349;28;20276;-76
2023/05/14 11:41:47;;;;;;;0.10;0.10;;;;;;;;;;5048650;28;20275;-75
2023/05/14 11:44:13;;;;;;;0.10;0.10;;;;;;;;;;5048828;28;20238;-74
2023/05/14 11:46:40;;;;;;;0.00;0.00;;;;;;;;;;5047439;28;20587;-75
2023/05/14 11:49:06;;;;;;;0.10;0.10;;;;;;;;;;5049537;28;20250;-74
2023/05/14 11:51:33;;;;;;;0.75;0.75;;;;;;;;;;5046369;28;20244;-74
2023/05/14 11:54:00;;;;;;;0.10;0.10;;;;;;;;;;5050425;28;20230;-75
2023/05/14 11:56:27;;;;;;;0.10;0.10;;;;;;;;;;5045672;28;20260;-75
2023/05/14 11:58:55;;;;;;;0.10;0.10;;;;;;;;;;5051240;28;20469;-74
2023/05/14 12:01:21;;;;;;;0.00;0.00;;;;;;;;;;5044584;28;20259;-76
2023/05/14 12:03:48;;;;;;;0.10;0.10;;;;;;;;;;5051921;28;20238;-75
2023/05/14 12:06:14;;;;;;;2.42;0.57;;;;;;;;;;5043889;28;20310;-75
2023/05/14 12:08:40;;;;;;;0.40;0.40;;;;;;;;;;5052624;28;20366;-75
2023/05/14 12:11:08;;;;;;;0.00;0.00;;;;;;;;;;5043110;28;20527;-75
2023/05/14 12:13:36;;;;;;;0.10;0.10;;;;;;;;;;5053162;28;20202;-75
2023/05/14 12:16:04;;;;;;;0.10;0.10;;;;;;;;;;5042464;28;20488;-75
2023/05/14 12:18:31;;;;;;;0.00;0.00;;;;;;;;;;5053533;28;20207;-74
2023/05/14 12:21:02;;;;;;;0.10;0.10;;;;;;;;;;5041351;28;20665;-76
2023/05/14 12:23:29;;;;;;;0.00;0.00;;;;;;;;;;5053799;28;20300;-75
2023/05/14 12:25:55;;;;;;;0.10;0.10;;;;;;;;;;5041266;28;20268;-75
2023/05/14 12:28:22;;;;;;;0.22;0.22;;;;;;;;;;5054430;28;20272;-75
2023/05/14 12:30:55;;;;;;;0.00;0.00;;;;;;;;;;5040268;28;20314;-74
2023/05/14 12:33:22;;;;;;;0.10;0.10;;;;;;;;;;5054744;28;20242;-76
2023/05/14 12:35:49;;;;;;;0.00;0.00;;;;;;;;;;5040270;28;20305;-76
2023/05/14 12:38:15;;;;;;;0.10;0.10;;;;;;;;;;5055321;28;20286;-75
2023/05/14 12:40:41;;;;;;;0.00;0.00;;;;;;;;;;5039053;28;20249;-75
2023/05/14 12:43:08;;;;;;;0.03;0.03;;;;;;;;;;5055743;28;20296;-74
2023/05/14 12:45:34;;;;;;;0.03;0.03;;;;;;;;;;5038242;28;20646;-75
2023/05/14 12:48:02;;;;;;;0.08;0.08;;;;;;;;;;5057031;28;20438;-75
2023/05/14 12:50:29;;;;;;;0.00;0.00;;;;;;;;;;5037019;28;20291;-76
2023/05/14 12:52:56;;;;;;;0.10;0.10;;;;;;;;;;5057566;28;20242;-75
2023/05/14 12:55:23;;;;;;;0.00;0.00;;;;;;;;;;5036434;28;20511;-75
2023/05/14 12:57:49;;;;;;;0.00;0.00;;;;;;;;;;5058278;28;20405;-77
2023/05/14 13:00:16;;;;;;;0.00;0.00;;;;;;;;;;5035517;28;20207;-75
2023/05/14 13:02:42;;;;;;;0.00;0.00;;;;;;;;;;5059127;28;20490;-77
2023/05/14 13:05:10;;;;;;;0.00;0.00;;;;;;;;;;5037807;28;20308;-75
2023/05/14 13:07:37;;;;;;;0.00;0.00;;;;;;;;;;5059596;28;20221;-76
2023/05/14 13:10:04;;;;;;;0.08;0.08;;;;;;;;;;5044621;28;20208;-76
2023/05/14 13:12:31;;;;;;;0.00;0.00;;;;;;;;;;5049606;28;20255;-75
2023/05/14 13:14:57;;;;;;;0.00;0.00;;;;;;;;;;5044484;28;20404;-76
2023/05/14 13:17:23;;;;;;;0.08;0.08;;;;;;;;;;5049570;28;20258;-77
2023/05/14 13:19:50;;;;;;;0.08;0.08;;;;;;;;;;5044406;28;20335;-77
2023/05/14 13:22:18;;;;;;;0.00;0.00;;;;;;;;;;5049397;28;20247;-76
2023/05/14 13:24:44;;;;;;;0.00;0.00;;;;;;;;;;5043987;28;20254;-77
2023/05/14 13:27:11;;;;;;;0.10;0.10;;;;;;;;;;5049280;28;20243;-76
2023/05/14 13:29:37;;;;;;;0.00;0.00;;;;;;;;;;5044239;28;20257;-76
2023/05/14 13:32:04;;;;;;;0.00;0.00;;;;;;;;;;5048032;28;20324;-75
2023/05/14 13:34:30;;;;;;;0.05;0.05;;;;;;;;;;5044705;28;20307;-76
2023/05/14 13:36:56;;;;;;;0.10;0.10;;;;;;;;;;5047753;28;20270;-76
2023/05/14 13:39:25;;;;;;;0.08;0.08;;;;;;;;;;5045699;28;20277;-75
2023/05/14 13:41:52;;;;;;;0.30;0.30;;;;;;;;;;5047003;28;20247;-75
2023/05/14 13:44:18;;;;;;;0.03;0.03;;;;;;;;;;5046184;28;20231;-75
2023/05/14 13:46:45;;;;;;;0.00;0.00;;;;;;;;;;5046073;28;20267;-75
2023/05/14 13:49:11;;;;;;;0.00;0.00;;;;;;;;;;5046625;28;20218;-76
2023/05/14 13:51:38;;;;;;;0.10;0.10;;;;;;;;;;5045009;28;20237;-76
2023/05/14 13:54:05;;;;;;;0.10;0.10;;;;;;;;;;5047683;28;20275;-77
2023/05/14 13:56:33;;;;;;;0.10;0.10;;;;;;;;;;5044232;28;20258;-75
2023/05/14 13:58:59;;;;;;;0.10;0.10;;;;;;;;;;5048316;28;20297;-74
2023/05/14 14:01:25;;;;;;;0.00;0.00;;;;;;;;;;5043433;28;20451;-75
2023/05/14 14:03:52;;;;;;;0.10;0.10;;;;;;;;;;5049045;28;20253;-75
2023/05/14 14:06:18;;;;;;;0.00;0.00;;;;;;;;;;5042396;28;20243;-75
2023/05/14 14:08:44;;;;;;;0.10;0.10;;;;;;;;;;5050077;28;20213;-76
2023/05/14 14:11:11;;;;;;;0.00;0.00;;;;;;;;;;5041479;28;20567;-75
2023/05/14 14:13:40;;;;;;;0.00;0.00;;;;;;;;;;5050860;28;20241;-75
2023/05/14 14:16:06;;;;;;;0.08;0.08;;;;;;;;;;5040923;28;20445;-75
2023/05/14 14:18:33;;;;;;;0.00;0.00;;;;;;;;;;5051542;28;20266;-76
2023/05/14 14:20:59;;;;;;;0.00;0.00;;;;;;;;;;5040117;28;20466;-75
2023/05/14 14:23:26;;;;;;;0.00;0.00;;;;;;;;;;5052313;28;20242;-75
2023/05/14 14:25:52;;;;;;;0.00;0.00;;;;;;;;;;5039625;28;20251;-79
2023/05/14 14:28:18;;;;;;;0.10;0.10;;;;;;;;;;5054244;28;20602;-78
2023/05/14 14:30:46;;;;;;;0.10;0.10;;;;;;;;;;5038088;28;20242;-77
2023/05/14 14:33:12;;;;;;;0.10;0.10;;;;;;;;;;5054451;28;20289;-79
2023/05/14 14:35:39;;;;;;;0.10;0.10;;;;;;;;;;5038835;28;20254;-77
2023/05/14 14:38:05;;;;;;;0.08;0.08;;;;;;;;;;5056383;28;20214;-76
2023/05/14 14:40:32;;;;;;;0.00;0.00;;;;;;;;;;5037918;28;20254;-77